sensor_id;sensor_type;location;lat;lon;timestamp;temperature;humidity
12223;DHT22;6174;49.058;8.524;2023-03-03T05:00:59;0.40;99.90
12223;DHT22;6174;49.058;8.524;2023-03-03T05:03:26;0.50;99.90
12223;DHT22;6174;49.058;8.524;2023-03-03T05:05:53;0.50;99.90
12223;DHT22;6174;49.058;8.524;2023-03-03T05:08:20;0.50;99.90
12223;DHT22;6174;49.058;8.524;2023-03-03T05:10:50;0.60;99.90
12223;DHT22;6174;49.058;8.524;2023-03-03T05:13:17;0.60;99.90
12223;DHT22;6174;49.058;8.524;2023-03-03T05:15:48;0.60;99.90
12223;DHT22;6174;49.058;8.524;2023-03-03T05:18:17;0.70;99.90
12223;DHT22;6174;49.058;8.524;2023-03-03T05:20:43;0.70;99.90
12223;DHT22;6174;49.058;8.524;2023-03-03T05:23:10;0.80;99.90
12223;DHT22;6174;49.058;8.524;2023-03-03T05:25:39;0.80;99.90
12223;DHT22;6174;49.058;8.524;2023-03-03T05:28:05;0.90;99.90
12223;DHT22;6174;49.058;8.524;2023-03-03T05:30:32;0.80;99.90
12223;DHT22;6174;49.058;8.524;2023-03-03T05:32:59;0.80;99.90
12223;DHT22;6174;49.058;8.524;2023-03-03T05:35:27;0.70;99.90
12223;DHT22;6174;49.058;8.524;2023-03-03T05:37:54;0.60;99.90
12223;DHT22;6174;49.058;8.524;2023-03-03T05:40:22;0.40;99.90
12223;DHT22;6174;49.058;8.524;2023-03-03T05:42:49;0.40;99.90
12223;DHT22;6174;49.058;8.524;2023-03-03T05:45:16;0.40;99.90
12223;DHT22;6174;49.058;8.524;2023-03-03T05:47:44;0.40;99.90
12223;DHT22;6174;49.058;8.524;2023-03-03T05:50:11;0.40;99.90
12223;DHT22;6174;49.058;8.524;2023-03-03T05:52:39;0.50;99.90
12223;DHT22;6174;49.058;8.524;2023-03-03T05:55:07;0.50;99.90
12223;DHT22;6174;49.058;8.524;2023-03-03T05:57:33;0.60;99.90
12223;DHT22;6174;49.058;8.524;2023-03-03T06:00:01;0.60;99.90
12223;DHT22;6174;49.058;8.524;2023-03-03T06:02:28;0.60;99.90
12223;DHT22;6174;49.058;8.524;2023-03-03T06:04:55;0.60;99.90
12223;DHT22;6174;49.058;8.524;2023-03-03T06:07:22;0.60;99.90
12223;DHT22;6174;49.058;8.524;2023-03-03T06:09:50;0.60;99.90
12223;DHT22;6174;49.058;8.524;2023-03-03T06:12:17;0.60;99.90
12223;DHT22;6174;49.058;8.524;2023-03-03T06:14:43;0.60;99.90
12223;DHT22;6174;49.058;8.524;2023-03-03T06:17:10;0.70;99.90
12223;DHT22;6174;49.058;8.524;2023-03-03T06:19:37;0.70;99.90
12223;DHT22;6174;49.058;8.524;2023-03-03T06:22:06;0.70;99.90
12223;DHT22;6174;49.058;8.524;2023-03-03T06:24:33;0.70;99.90
12223;DHT22;6174;49.058;8.524;2023-03-03T06:27:01;0.70;99.90
12223;DHT22;6174;49.058;8.524;2023-03-03T06:29:28;0.80;99.90
12223;DHT22;6174;49.058;8.524;2023-03-03T06:31:55;0.70;99.90
12223;DHT22;6174;49.058;8.524;2023-03-03T06:34:21;0.70;99.90
12223;DHT22;6174;49.058;8.524;2023-03-03T06:36:48;0.80;99.90
12223;DHT22;6174;49.058;8.524;2023-03-03T06:39:15;0.90;99.90
12223;DHT22;6174;49.058;8.524;2023-03-03T06:41:42;0.90;99.90
12223;DHT22;6174;49.058;8.524;2023-03-03T06:44:10;0.90;99.90
12223;DHT22;6174;49.058;8.524;2023-03-03T06:46:37;0.90;99.90
12223;DHT22;6174;49.058;8.524;2023-03-03T06:49:04;0.90;99.90
12223;DHT22;6174;49.058;8.524;2023-03-03T06:51:32;1.00;99.90
12223;DHT22;6174;49.058;8.524;2023-03-03T06:54:02;1.00;99.90
12223;DHT22;6174;49.058;8.524;2023-03-03T06:56:35;1.10;99.90
12223;DHT22;6174;49.058;8.524;2023-03-03T06:59:12;1.10;99.90
12223;DHT22;6174;49.058;8.524;2023-03-03T07:01:40;1.20;99.90
12223;DHT22;6174;49.058;8.524;2023-03-03T07:04:16;1.20;99.90
12223;DHT22;6174;49.058;8.524;2023-03-03T07:06:46;1.20;99.90
12223;DHT22;6174;49.058;8.524;2023-03-03T07:09:19;1.20;99.90
12223;DHT22;6174;49.058;8.524;2023-03-03T07:11:46;1.20;99.90
12223;DHT22;6174;49.058;8.524;2023-03-03T07:14:16;1.30;99.90
12223;DHT22;6174;49.058;8.524;2023-03-03T07:16:43;1.30;99.90
12223;DHT22;6174;49.058;8.524;2023-03-03T07:19:18;1.40;99.90
12223;DHT22;6174;49.058;8.524;2023-03-03T07:21:46;2.30;99.90
12223;DHT22;6174;49.058;8.524;2023-03-03T07:24:25;1.60;99.90
12223;DHT22;6174;49.058;8.524;2023-03-03T07:26:55;1.60;99.90
12223;DHT22;6174;49.058;8.524;2023-03-03T07:29:27;1.70;99.90
12223;DHT22;6174;49.058;8.524;2023-03-03T07:31:56;1.80;99.90
12223;DHT22;6174;49.058;8.524;2023-03-03T07:34:26;1.90;99.90
12223;DHT22;6174;49.058;8.524;2023-03-03T07:36:56;2.00;99.90
12223;DHT22;6174;49.058;8.524;2023-03-03T07:39:34;2.00;99.90
12223;DHT22;6174;49.058;8.524;2023-03-03T07:42:13;2.10;99.90
12223;DHT22;6174;49.058;8.524;2023-03-03T07:44:42;2.10;99.90
12223;DHT22;6174;49.058;8.524;2023-03-03T07:47:17;2.20;99.90
12223;DHT22;6174;49.058;8.524;2023-03-03T07:49:46;2.20;99.90
12223;DHT22;6174;49.058;8.524;2023-03-03T07:52:24;2.30;99.90
12223;DHT22;6174;49.058;8.524;2023-03-03T07:54:51;3.00;99.90
12223;DHT22;6174;49.058;8.524;2023-03-03T07:57:21;2.30;99.90
12223;DHT22;6174;49.058;8.524;2023-03-03T07:59:51;2.40;99.90
12223;DHT22;6174;49.058;8.524;2023-03-03T08:02:42;2.50;99.90
12223;DHT22;6174;49.058;8.524;2023-03-03T08:05:28;2.60;99.90
12223;DHT22;6174;49.058;8.524;2023-03-03T08:08:09;2.60;99.90
12223;DHT22;6174;49.058;8.524;2023-03-03T08:10:41;2.70;99.90
12223;DHT22;6174;49.058;8.524;2023-03-03T08:13:16;2.70;99.90
12223;DHT22;6174;49.058;8.524;2023-03-03T08:15:45;2.70;99.90
12223;DHT22;6174;49.058;8.524;2023-03-03T08:18:21;2.80;99.90
12223;DHT22;6174;49.058;8.524;2023-03-03T08:20:50;2.70;99.90
12223;DHT22;6174;49.058;8.524;2023-03-03T08:23:18;2.70;99.90
12223;DHT22;6174;49.058;8.524;2023-03-03T08:25:47;2.70;99.90
12223;DHT22;6174;49.058;8.524;2023-03-03T08:28:15;2.70;99.90
12223;DHT22;6174;49.058;8.524;2023-03-03T08:30:42;2.70;99.90
12223;DHT22;6174;49.058;8.524;2023-03-03T08:33:11;2.80;99.90
12223;DHT22;6174;49.058;8.524;2023-03-03T08:35:38;2.90;99.90
12223;DHT22;6174;49.058;8.524;2023-03-03T08:38:05;3.20;99.90
12223;DHT22;6174;49.058;8.524;2023-03-03T08:40:32;3.50;99.90
12223;DHT22;6174;49.058;8.524;2023-03-03T08:42:59;4.00;99.90
12223;DHT22;6174;49.058;8.524;2023-03-03T08:45:26;4.00;99.90
12223;DHT22;6174;49.058;8.524;2023-03-03T08:47:53;4.10;99.90
12223;DHT22;6174;49.058;8.524;2023-03-03T08:50:22;4.20;99.90
12223;DHT22;6174;49.058;8.524;2023-03-03T08:52:49;4.10;99.90
12223;DHT22;6174;49.058;8.524;2023-03-03T08:55:16;4.10;99.90
12223;DHT22;6174;49.058;8.524;2023-03-03T08:57:43;4.20;99.90
12223;DHT22;6174;49.058;8.524;2023-03-03T09:00:13;4.30;99.90
12223;DHT22;6174;49.058;8.524;2023-03-03T09:02:40;4.40;99.90
12223;DHT22;6174;49.058;8.524;2023-03-03T09:05:08;4.40;99.90
12223;DHT22;6174;49.058;8.524;2023-03-03T09:07:38;4.40;99.90
12223;DHT22;6174;49.058;8.524;2023-03-03T09:10:06;4.30;99.90
12223;DHT22;6174;49.058;8.524;2023-03-03T09:12:34;4.40;99.90
12223;DHT22;6174;49.058;8.524;2023-03-03T09:15:14;4.40;99.90
12223;DHT22;6174;49.058;8.524;2023-03-03T09:17:42;4.40;99.90
12223;DHT22;6174;49.058;8.524;2023-03-03T09:20:29;4.60;99.90
12223;DHT22;6174;49.058;8.524;2023-03-03T09:22:59;4.30;99.90
12223;DHT22;6174;49.058;8.524;2023-03-03T09:25:31;4.30;99.90
12223;DHT22;6174;49.058;8.524;2023-03-03T09:27:59;4.20;99.90
12223;DHT22;6174;49.058;8.524;2023-03-03T09:30:36;4.30;99.90
12223;DHT22;6174;49.058;8.524;2023-03-03T09:33:27;4.40;99.90
12223;DHT22;6174;49.058;8.524;2023-03-03T09:36:02;4.40;99.90
12223;DHT22;6174;49.058;8.524;2023-03-03T09:38:32;4.40;99.90
12223;DHT22;6174;49.058;8.524;2023-03-03T09:41:15;4.50;99.90
12223;DHT22;6174;49.058;8.524;2023-03-03T09:43:59;4.60;99.90
12223;DHT22;6174;49.058;8.524;2023-03-03T09:46:36;4.70;99.90
12223;DHT22;6174;49.058;8.524;2023-03-03T09:49:15;4.80;99.90
12223;DHT22;6174;49.058;8.524;2023-03-03T09:52:11;4.90;99.90
12223;DHT22;6174;49.058;8.524;2023-03-03T09:54:53;5.10;99.90
12223;DHT22;6174;49.058;8.524;2023-03-03T09:57:31;5.00;99.90
12223;DHT22;6174;49.058;8.524;2023-03-03T10:00:18;5.10;99.90
12223;DHT22;6174;49.058;8.524;2023-03-03T10:03:02;5.20;99.90
12223;DHT22;6174;49.058;8.524;2023-03-03T10:05:40;5.30;99.90
12223;DHT22;6174;49.058;8.524;2023-03-03T10:08:20;5.50;99.90
12223;DHT22;6174;49.058;8.524;2023-03-03T10:10:59;5.60;99.90
12223;DHT22;6174;49.058;8.524;2023-03-03T10:16:48;5.70;99.90
12223;DHT22;6174;49.058;8.524;2023-03-03T10:19:30;5.90;99.90
12223;DHT22;6174;49.058;8.524;2023-03-03T10:22:15;5.90;99.90
12223;DHT22;6174;49.058;8.524;2023-03-03T10:24:50;6.00;99.90
12223;DHT22;6174;49.058;8.524;2023-03-03T10:27:36;6.00;99.90
12223;DHT22;6174;49.058;8.524;2023-03-03T10:30:11;6.10;99.90
12223;DHT22;6174;49.058;8.524;2023-03-03T10:32:44;6.30;99.90
12223;DHT22;6174;49.058;8.524;2023-03-03T10:35:22;6.40;99.90
12223;DHT22;6174;49.058;8.524;2023-03-03T10:38:02;6.50;99.90
12223;DHT22;6174;49.058;8.524;2023-03-03T10:40:39;6.60;99.90
12223;DHT22;6174;49.058;8.524;2023-03-03T10:43:24;6.70;99.90
12223;DHT22;6174;49.058;8.524;2023-03-03T10:46:09;6.80;99.00
12223;DHT22;6174;49.058;8.524;2023-03-03T10:49:09;6.70;97.80
12223;DHT22;6174;49.058;8.524;2023-03-03T10:51:50;6.80;98.90
12223;DHT22;6174;49.058;8.524;2023-03-03T10:54:29;7.00;98.00
12223;DHT22;6174;49.058;8.524;2023-03-03T10:57:07;7.00;98.00
12223;DHT22;6174;49.058;8.524;2023-03-03T10:59:57;6.90;96.80
12223;DHT22;6174;49.058;8.524;2023-03-03T11:02:32;6.90;97.60
12223;DHT22;6174;49.058;8.524;2023-03-03T11:05:22;7.00;98.30
12223;DHT22;6174;49.058;8.524;2023-03-03T11:07:56;7.20;97.80
12223;DHT22;6174;49.058;8.524;2023-03-03T11:10:37;7.30;96.50
12223;DHT22;6174;49.058;8.524;2023-03-03T11:13:15;7.30;95.90
12223;DHT22;6174;49.058;8.524;2023-03-03T11:15:54;7.40;96.50
12223;DHT22;6174;49.058;8.524;2023-03-03T11:18:35;7.50;96.10
12223;DHT22;6174;49.058;8.524;2023-03-03T11:21:12;7.60;95.10
12223;DHT22;6174;49.058;8.524;2023-03-03T11:23:52;7.60;95.90
12223;DHT22;6174;49.058;8.524;2023-03-03T11:26:33;7.70;96.00
12223;DHT22;6174;49.058;8.524;2023-03-03T11:29:15;7.70;94.00
12223;DHT22;6174;49.058;8.524;2023-03-03T11:31:49;7.70;93.70
12223;DHT22;6174;49.058;8.524;2023-03-03T11:34:35;7.70;94.30
12223;DHT22;6174;49.058;8.524;2023-03-03T11:37:07;8.10;94.50
12223;DHT22;6174;49.058;8.524;2023-03-03T11:39:36;7.80;92.50
12223;DHT22;6174;49.058;8.524;2023-03-03T11:42:13;7.90;92.50
12223;DHT22;6174;49.058;8.524;2023-03-03T11:44:45;7.80;92.60
12223;DHT22;6174;49.058;8.524;2023-03-03T11:47:18;7.90;92.70
12223;DHT22;6174;49.058;8.524;2023-03-03T11:49:49;7.90;92.30
12223;DHT22;6174;49.058;8.524;2023-03-03T11:52:26;7.90;93.10
12223;DHT22;6174;49.058;8.524;2023-03-03T11:54:59;8.00;93.40
12223;DHT22;6174;49.058;8.524;2023-03-03T11:57:32;8.30;93.40
12223;DHT22;6174;49.058;8.524;2023-03-03T12:00:04;8.40;92.40
12223;DHT22;6174;49.058;8.524;2023-03-03T12:05:44;8.40;91.50
12223;DHT22;6174;49.058;8.524;2023-03-03T12:08:21;8.40;91.60
12223;DHT22;6174;49.058;8.524;2023-03-03T12:10:52;8.30;91.40
12223;DHT22;6174;49.058;8.524;2023-03-03T12:13:31;8.40;91.80
12223;DHT22;6174;49.058;8.524;2023-03-03T12:16:06;8.60;92.10
12223;DHT22;6174;49.058;8.524;2023-03-03T12:18:56;8.60;91.10
12223;DHT22;6174;49.058;8.524;2023-03-03T12:21:38;8.60;91.30
12223;DHT22;6174;49.058;8.524;2023-03-03T12:24:22;8.50;91.10
12223;DHT22;6174;49.058;8.524;2023-03-03T12:27:00;8.60;91.10
12223;DHT22;6174;49.058;8.524;2023-03-03T12:29:40;8.50;90.30
12223;DHT22;6174;49.058;8.524;2023-03-03T12:32:19;8.40;90.30
12223;DHT22;6174;49.058;8.524;2023-03-03T12:34:56;8.30;90.60
12223;DHT22;6174;49.058;8.524;2023-03-03T12:37:47;8.50;91.50
12223;DHT22;6174;49.058;8.524;2023-03-03T12:40:18;8.60;91.00
12223;DHT22;6174;49.058;8.524;2023-03-03T12:43:00;8.70;90.60
12223;DHT22;6174;49.058;8.524;2023-03-03T12:45:36;8.70;91.00
12223;DHT22;6174;49.058;8.524;2023-03-03T12:48:08;8.80;90.20
12223;DHT22;6174;49.058;8.524;2023-03-03T12:50:48;8.90;90.70
12223;DHT22;6174;49.058;8.524;2023-03-03T12:53:29;8.90;90.40
12223;DHT22;6174;49.058;8.524;2023-03-03T12:56:02;9.00;90.60
12223;DHT22;6174;49.058;8.524;2023-03-03T12:58:39;9.10;89.50
12223;DHT22;6174;49.058;8.524;2023-03-03T13:01:18;9.10;89.20
12223;DHT22;6174;49.058;8.524;2023-03-03T13:03:52;9.30;88.70
12223;DHT22;6174;49.058;8.524;2023-03-03T13:06:28;9.30;88.50
12223;DHT22;6174;49.058;8.524;2023-03-03T13:09:05;9.20;87.40
12223;DHT22;6174;49.058;8.524;2023-03-03T13:11:48;9.30;88.80
12223;DHT22;6174;49.058;8.524;2023-03-03T13:14:25;9.20;87.70
12223;DHT22;6174;49.058;8.524;2023-03-03T13:17:03;9.30;89.40
12223;DHT22;6174;49.058;8.524;2023-03-03T13:19:35;9.30;89.30
12223;DHT22;6174;49.058;8.524;2023-03-03T13:22:09;9.40;89.50
12223;DHT22;6174;49.058;8.524;2023-03-03T13:24:44;9.40;89.00
12223;DHT22;6174;49.058;8.524;2023-03-03T13:27:19;9.40;88.90
12223;DHT22;6174;49.058;8.524;2023-03-03T13:29:55;9.40;90.00
12223;DHT22;6174;49.058;8.524;2023-03-03T13:32:31;9.40;89.80
12223;DHT22;6174;49.058;8.524;2023-03-03T13:35:07;9.40;89.90
12223;DHT22;6174;49.058;8.524;2023-03-03T13:37:39;9.50;89.10
12223;DHT22;6174;49.058;8.524;2023-03-03T13:40:15;9.40;87.40
12223;DHT22;6174;49.058;8.524;2023-03-03T13:42:46;9.40;88.00
12223;DHT22;6174;49.058;8.524;2023-03-03T13:45:17;9.30;87.60
12223;DHT22;6174;49.058;8.524;2023-03-03T13:47:49;9.30;88.00
12223;DHT22;6174;49.058;8.524;2023-03-03T13:50:21;9.40;87.30
12223;DHT22;6174;49.058;8.524;2023-03-03T13:53:03;9.30;88.80
12223;DHT22;6174;49.058;8.524;2023-03-03T13:55:35;9.40;88.90
12223;DHT22;6174;49.058;8.524;2023-03-03T13:58:12;9.40;88.50
12223;DHT22;6174;49.058;8.524;2023-03-03T14:00:58;9.50;89.80
12223;DHT22;6174;49.058;8.524;2023-03-03T14:03:59;9.50;88.40
12223;DHT22;6174;49.058;8.524;2023-03-03T14:06:28;9.50;86.70
12223;DHT22;6174;49.058;8.524;2023-03-03T14:11:50;9.50;88.70
12223;DHT22;6174;49.058;8.524;2023-03-03T14:14:28;9.50;88.40
12223;DHT22;6174;49.058;8.524;2023-03-03T14:17:02;9.60;88.20
12223;DHT22;6174;49.058;8.524;2023-03-03T14:19:33;9.70;88.20
12223;DHT22;6174;49.058;8.524;2023-03-03T14:22:11;9.70;89.00
12223;DHT22;6174;49.058;8.524;2023-03-03T14:24:59;9.70;88.60
12223;DHT22;6174;49.058;8.524;2023-03-03T14:27:27;9.70;89.50
12223;DHT22;6174;49.058;8.524;2023-03-03T14:29:54;10.00;89.00
12223;DHT22;6174;49.058;8.524;2023-03-03T14:32:23;9.70;88.70
12223;DHT22;6174;49.058;8.524;2023-03-03T14:34:56;9.70;89.30
12223;DHT22;6174;49.058;8.524;2023-03-03T14:37:25;9.70;88.70
12223;DHT22;6174;49.058;8.524;2023-03-03T14:40:19;9.70;89.00
12223;DHT22;6174;49.058;8.524;2023-03-03T14:42:48;9.70;88.90
12223;DHT22;6174;49.058;8.524;2023-03-03T14:45:28;9.70;89.30
12223;DHT22;6174;49.058;8.524;2023-03-03T14:47:56;9.70;88.40
12223;DHT22;6174;49.058;8.524;2023-03-03T14:50:37;9.70;88.60
12223;DHT22;6174;49.058;8.524;2023-03-03T14:53:10;9.80;87.00
12223;DHT22;6174;49.058;8.524;2023-03-03T14:55:40;9.70;87.10
12223;DHT22;6174;49.058;8.524;2023-03-03T14:58:27;9.70;88.10
12223;DHT22;6174;49.058;8.524;2023-03-03T15:01:12;9.80;87.90
12223;DHT22;6174;49.058;8.524;2023-03-03T15:03:45;9.70;88.10
12223;DHT22;6174;49.058;8.524;2023-03-03T15:06:33;9.70;88.40
12223;DHT22;6174;49.058;8.524;2023-03-03T15:09:30;9.60;88.20
12223;DHT22;6174;49.058;8.524;2023-03-03T15:12:04;9.50;88.50
12223;DHT22;6174;49.058;8.524;2023-03-03T15:14:44;9.50;88.90
12223;DHT22;6174;49.058;8.524;2023-03-03T15:17:18;9.40;89.60
12223;DHT22;6174;49.058;8.524;2023-03-03T15:19:54;9.40;89.00
12223;DHT22;6174;49.058;8.524;2023-03-03T15:22:40;9.40;90.00
12223;DHT22;6174;49.058;8.524;2023-03-03T15:25:17;9.30;87.60
12223;DHT22;6174;49.058;8.524;2023-03-03T15:27:48;9.30;88.50
12223;DHT22;6174;49.058;8.524;2023-03-03T15:30:24;9.30;89.00
12223;DHT22;6174;49.058;8.524;2023-03-03T15:32:59;9.30;89.60
12223;DHT22;6174;49.058;8.524;2023-03-03T15:35:35;9.30;90.00
12223;DHT22;6174;49.058;8.524;2023-03-03T15:38:13;9.30;89.20
12223;DHT22;6174;49.058;8.524;2023-03-03T15:40:46;9.40;88.30
12223;DHT22;6174;49.058;8.524;2023-03-03T15:43:21;9.50;88.10
12223;DHT22;6174;49.058;8.524;2023-03-03T15:45:59;9.40;87.90
12223;DHT22;6174;49.058;8.524;2023-03-03T15:48:40;9.40;87.80
12223;DHT22;6174;49.058;8.524;2023-03-03T15:51:20;9.40;89.20
12223;DHT22;6174;49.058;8.524;2023-03-03T15:54:01;9.40;88.10
12223;DHT22;6174;49.058;8.524;2023-03-03T15:56:36;9.40;88.40
12223;DHT22;6174;49.058;8.524;2023-03-03T16:02:14;9.30;88.70
12223;DHT22;6174;49.058;8.524;2023-03-03T16:04:49;9.30;89.20
12223;DHT22;6174;49.058;8.524;2023-03-03T16:07:27;9.30;89.60
12223;DHT22;6174;49.058;8.524;2023-03-03T16:10:02;9.20;89.10
12223;DHT22;6174;49.058;8.524;2023-03-03T16:12:43;9.30;88.70
12223;DHT22;6174;49.058;8.524;2023-03-03T16:15:26;9.20;89.20
12223;DHT22;6174;49.058;8.524;2023-03-03T16:18:02;9.20;89.60
12223;DHT22;6174;49.058;8.524;2023-03-03T16:20:35;9.40;89.30
12223;DHT22;6174;49.058;8.524;2023-03-03T16:23:16;9.20;89.60
12223;DHT22;6174;49.058;8.524;2023-03-03T16:26:09;9.10;90.10
12223;DHT22;6174;49.058;8.524;2023-03-03T16:28:50;9.10;90.00
12223;DHT22;6174;49.058;8.524;2023-03-03T16:31:25;9.10;90.20
12223;DHT22;6174;49.058;8.524;2023-03-03T16:34:03;9.00;90.10
12223;DHT22;6174;49.058;8.524;2023-03-03T16:36:42;8.90;90.50
12223;DHT22;6174;49.058;8.524;2023-03-03T16:39:19;8.80;90.50
12223;DHT22;6174;49.058;8.524;2023-03-03T16:41:54;8.80;90.70
12223;DHT22;6174;49.058;8.524;2023-03-03T16:44:38;8.70;91.00
12223;DHT22;6174;49.058;8.524;2023-03-03T16:47:25;8.70;91.00
12223;DHT22;6174;49.058;8.524;2023-03-03T16:50:13;8.60;91.20
12223;DHT22;6174;49.058;8.524;2023-03-03T16:52:47;8.50;91.20
12223;DHT22;6174;49.058;8.524;2023-03-03T16:55:17;8.50;91.30
12223;DHT22;6174;49.058;8.524;2023-03-03T16:57:56;8.40;91.30
12223;DHT22;6174;49.058;8.524;2023-03-03T17:00:28;8.40;91.70
12223;DHT22;6174;49.058;8.524;2023-03-03T17:03:22;8.30;92.10
12223;DHT22;6174;49.058;8.524;2023-03-03T17:05:52;8.20;92.30
12223;DHT22;6174;49.058;8.524;2023-03-03T17:08:43;8.10;92.00
12223;DHT22;6174;49.058;8.524;2023-03-03T17:11:18;8.00;91.90
12223;DHT22;6174;49.058;8.524;2023-03-03T17:16:55;8.00;91.70
12223;DHT22;6174;49.058;8.524;2023-03-03T17:19:37;7.90;92.10
12223;DHT22;6174;49.058;8.524;2023-03-03T17:22:16;7.90;91.90
12223;DHT22;6174;49.058;8.524;2023-03-03T17:24:56;7.80;92.30
12223;DHT22;6174;49.058;8.524;2023-03-03T17:27:30;7.70;92.50
12223;DHT22;6174;49.058;8.524;2023-03-03T17:30:05;7.60;92.30
12223;DHT22;6174;49.058;8.524;2023-03-03T17:32:47;7.60;92.50
12223;DHT22;6174;49.058;8.524;2023-03-03T17:35:30;7.50;92.90
12223;DHT22;6174;49.058;8.524;2023-03-03T17:38:02;7.30;92.90
12223;DHT22;6174;49.058;8.524;2023-03-03T17:40:46;7.20;92.90
12223;DHT22;6174;49.058;8.524;2023-03-03T17:43:20;7.00;93.20
12223;DHT22;6174;49.058;8.524;2023-03-03T17:45:50;6.90;93.50
12223;DHT22;6174;49.058;8.524;2023-03-03T17:48:39;6.80;93.80
12223;DHT22;6174;49.058;8.524;2023-03-03T17:51:19;6.70;94.20
12223;DHT22;6174;49.058;8.524;2023-03-03T17:54:03;6.60;94.40
12223;DHT22;6174;49.058;8.524;2023-03-03T17:56:41;6.60;94.70
12223;DHT22;6174;49.058;8.524;2023-03-03T17:59:28;6.50;94.70
12223;DHT22;6174;49.058;8.524;2023-03-03T18:02:28;6.40;94.80
12223;DHT22;6174;49.058;8.524;2023-03-03T18:05:25;6.40;95.20
12223;DHT22;6174;49.058;8.524;2023-03-03T18:08:05;6.30;95.30
12223;DHT22;6174;49.058;8.524;2023-03-03T18:10:52;6.30;95.60
12223;DHT22;6174;49.058;8.524;2023-03-03T18:13:37;6.20;95.70
12223;DHT22;6174;49.058;8.524;2023-03-03T18:16:15;6.20;95.80
12223;DHT22;6174;49.058;8.524;2023-03-03T18:19:11;6.10;96.00
12223;DHT22;6174;49.058;8.524;2023-03-03T18:21:43;6.10;96.40
12223;DHT22;6174;49.058;8.524;2023-03-03T18:24:37;6.00;96.50
12223;DHT22;6174;49.058;8.524;2023-03-03T18:27:28;6.00;96.30
12223;DHT22;6174;49.058;8.524;2023-03-03T18:33:08;5.80;96.80
12223;DHT22;6174;49.058;8.524;2023-03-03T18:35:37;5.80;97.10
12223;DHT22;6174;49.058;8.524;2023-03-03T18:38:35;5.70;97.30
12223;DHT22;6174;49.058;8.524;2023-03-03T18:41:08;5.60;97.60
12223;DHT22;6174;49.058;8.524;2023-03-03T18:43:55;5.50;97.80
12223;DHT22;6174;49.058;8.524;2023-03-03T18:46:48;5.40;97.90
12223;DHT22;6174;49.058;8.524;2023-03-03T18:49:15;5.30;98.20
12223;DHT22;6174;49.058;8.524;2023-03-03T18:51:49;5.30;98.40
12223;DHT22;6174;49.058;8.524;2023-03-03T18:54:25;5.30;98.70
12223;DHT22;6174;49.058;8.524;2023-03-03T18:57:15;5.20;98.90
12223;DHT22;6174;49.058;8.524;2023-03-03T18:59:51;5.20;99.20
12223;DHT22;6174;49.058;8.524;2023-03-03T19:02:28;5.10;99.60
12223;DHT22;6174;49.058;8.524;2023-03-03T19:05:07;5.10;99.90
12223;DHT22;6174;49.058;8.524;2023-03-03T19:07:51;5.00;99.90
12223;DHT22;6174;49.058;8.524;2023-03-03T19:10:43;5.00;99.90
12223;DHT22;6174;49.058;8.524;2023-03-03T19:16:30;4.90;99.90
12223;DHT22;6174;49.058;8.524;2023-03-03T19:19:06;4.90;99.90
12223;DHT22;6174;49.058;8.524;2023-03-03T19:21:35;4.80;99.90
12223;DHT22;6174;49.058;8.524;2023-03-03T19:24:03;4.60;99.90
12223;DHT22;6174;49.058;8.524;2023-03-03T19:29:52;4.40;99.90
12223;DHT22;6174;49.058;8.524;2023-03-03T19:32:34;4.40;99.90
12223;DHT22;6174;49.058;8.524;2023-03-03T19:35:18;4.30;99.90
12223;DHT22;6174;49.058;8.524;2023-03-03T19:37:53;4.30;99.90
12223;DHT22;6174;49.058;8.524;2023-03-03T19:40:27;4.20;99.90
12223;DHT22;6174;49.058;8.524;2023-03-03T19:43:02;4.20;99.90
12223;DHT22;6174;49.058;8.524;2023-03-03T19:45:44;4.20;99.90
12223;DHT22;6174;49.058;8.524;2023-03-03T19:48:20;4.20;99.90
12223;DHT22;6174;49.058;8.524;2023-03-03T19:50:54;4.10;99.90
12223;DHT22;6174;49.058;8.524;2023-03-03T19:53:30;4.00;99.90
12223;DHT22;6174;49.058;8.524;2023-03-03T19:56:12;4.00;99.90
12223;DHT22;6174;49.058;8.524;2023-03-03T19:58:49;4.00;99.90
12223;DHT22;6174;49.058;8.524;2023-03-03T20:01:21;4.00;99.90
12223;DHT22;6174;49.058;8.524;2023-03-03T20:04:09;3.90;99.90
12223;DHT22;6174;49.058;8.524;2023-03-03T20:06:48;3.80;99.90
12223;DHT22;6174;49.058;8.524;2023-03-03T20:09:23;3.80;99.90
12223;DHT22;6174;49.058;8.524;2023-03-03T20:12:01;3.70;99.90
12223;DHT22;6174;49.058;8.524;2023-03-03T20:14:40;3.70;99.90
12223;DHT22;6174;49.058;8.524;2023-03-03T20:17:30;3.70;99.90
12223;DHT22;6174;49.058;8.524;2023-03-03T20:20:11;3.70;99.90
12223;DHT22;6174;49.058;8.524;2023-03-03T20:22:48;3.60;99.90
12223;DHT22;6174;49.058;8.524;2023-03-03T20:25:24;3.60;99.90
12223;DHT22;6174;49.058;8.524;2023-03-03T20:28:00;3.50;99.90
12223;DHT22;6174;49.058;8.524;2023-03-03T20:30:41;3.50;99.90
12223;DHT22;6174;49.058;8.524;2023-03-03T20:33:27;3.50;99.90
12223;DHT22;6174;49.058;8.524;2023-03-03T20:36:07;3.40;99.90
12223;DHT22;6174;49.058;8.524;2023-03-03T20:38:43;3.40;99.90
12223;DHT22;6174;49.058;8.524;2023-03-03T20:41:17;3.40;99.90
12223;DHT22;6174;49.058;8.524;2023-03-03T20:43:57;3.40;99.90
12223;DHT22;6174;49.058;8.524;2023-03-03T20:46:31;3.30;99.90
12223;DHT22;6174;49.058;8.524;2023-03-03T20:49:11;3.30;99.90
12223;DHT22;6174;49.058;8.524;2023-03-03T20:51:47;3.30;99.90
12223;DHT22;6174;49.058;8.524;2023-03-03T20:54:22;3.20;99.90
12223;DHT22;6174;49.058;8.524;2023-03-03T20:57:01;3.20;99.90
12223;DHT22;6174;49.058;8.524;2023-03-03T20:59:34;3.20;99.90
12223;DHT22;6174;49.058;8.524;2023-03-03T21:02:11;3.20;99.90
12223;DHT22;6174;49.058;8.524;2023-03-03T21:04:41;3.20;99.90
12223;DHT22;6174;49.058;8.524;2023-03-03T21:07:22;3.20;99.90
12223;DHT22;6174;49.058;8.524;2023-03-03T21:09:49;3.20;99.90
12223;DHT22;6174;49.058;8.524;2023-03-03T21:12:34;3.20;99.90
12223;DHT22;6174;49.058;8.524;2023-03-03T21:15:02;3.10;99.90
12223;DHT22;6174;49.058;8.524;2023-03-03T21:17:32;3.00;99.90
12223;DHT22;6174;49.058;8.524;2023-03-03T21:20:18;3.00;99.90
12223;DHT22;6174;49.058;8.524;2023-03-03T21:22:46;2.90;99.90
12223;DHT22;6174;49.058;8.524;2023-03-03T21:25:41;2.80;99.90
12223;DHT22;6174;49.058;8.524;2023-03-03T21:28:13;2.80;99.90
12223;DHT22;6174;49.058;8.524;2023-03-03T21:30:58;2.70;99.90
12223;DHT22;6174;49.058;8.524;2023-03-03T21:33:50;2.70;99.90
12223;DHT22;6174;49.058;8.524;2023-03-03T21:36:21;2.70;99.90
12223;DHT22;6174;49.058;8.524;2023-03-03T21:38:51;2.60;99.90
12223;DHT22;6174;49.058;8.524;2023-03-03T21:41:19;2.60;99.90
12223;DHT22;6174;49.058;8.524;2023-03-03T21:43:47;2.70;99.90
12223;DHT22;6174;49.058;8.524;2023-03-03T21:46:17;2.70;99.90
12223;DHT22;6174;49.058;8.524;2023-03-03T21:48:44;2.70;99.90
12223;DHT22;6174;49.058;8.524;2023-03-03T21:51:11;2.70;99.90
12223;DHT22;6174;49.058;8.524;2023-03-03T21:53:40;2.70;99.90
12223;DHT22;6174;49.058;8.524;2023-03-03T21:56:08;2.70;99.90
12223;DHT22;6174;49.058;8.524;2023-03-03T21:58:35;2.70;99.90
12223;DHT22;6174;49.058;8.524;2023-03-03T22:01:03;2.70;99.90
12223;DHT22;6174;49.058;8.524;2023-03-03T22:03:30;2.70;99.90
12223;DHT22;6174;49.058;8.524;2023-03-03T22:06:00;2.70;99.90
12223;DHT22;6174;49.058;8.524;2023-03-03T22:08:27;2.70;99.90
12223;DHT22;6174;49.058;8.524;2023-03-03T22:10:53;2.70;99.90
12223;DHT22;6174;49.058;8.524;2023-03-03T22:13:24;2.60;99.90
12223;DHT22;6174;49.058;8.524;2023-03-03T22:15:52;2.60;99.90
12223;DHT22;6174;49.058;8.524;2023-03-03T22:18:19;2.60;99.90
12223;DHT22;6174;49.058;8.524;2023-03-03T22:20:47;2.50;99.90